sensor_id;sensor_type;location;lat;lon;timestamp;pressure;altitude;pressure_sealevel;temperature;humidity
54900;BME280;40801;41.924;25.562;2024-02-26T00:02:15;99213.31;;;11.53;72.58
54900;BME280;40801;41.924;25.562;2024-02-26T00:04:40;99215.56;;;11.51;72.61
54900;BME280;40801;41.924;25.562;2024-02-26T00:07:06;99210.47;;;11.49;73.20
54900;BME280;40801;41.924;25.562;2024-02-26T00:09:32;99209.19;;;11.47;73.48
54900;BME280;40801;41.924;25.562;2024-02-26T00:12:01;99209.97;;;11.47;73.80
54900;BME280;40801;41.924;25.562;2024-02-26T00:14:26;99203.47;;;11.48;73.70
54900;BME280;40801;41.924;25.562;2024-02-26T00:16:52;99208.72;;;11.54;73.43
54900;BME280;40801;41.924;25.562;2024-02-26T00:19:17;99201.59;;;11.58;73.28
54900;BME280;40801;41.924;25.562;2024-02-26T00:21:42;99193.78;;;11.56;73.13
54900;BME280;40801;41.924;25.562;2024-02-26T00:24:08;99197.78;;;11.59;73.08
54900;BME280;40801;41.924;25.562;2024-02-26T00:26:34;99196.50;;;11.56;73.01
54900;BME280;40801;41.924;25.562;2024-02-26T00:28:59;99195.69;;;11.56;73.24
54900;BME280;40801;41.924;25.562;2024-02-26T00:31:24;99195.22;;;11.54;73.56
54900;BME280;40801;41.924;25.562;2024-02-26T00:33:50;99189.66;;;11.50;73.75
54900;BME280;40801;41.924;25.562;2024-02-26T00:36:15;99193.63;;;11.44;73.98
54900;BME280;40801;41.924;25.562;2024-02-26T00:38:41;99181.69;;;11.36;73.97
54900;BME280;40801;41.924;25.562;2024-02-26T00:41:08;99181.06;;;11.31;74.19
54900;BME280;40801;41.924;25.562;2024-02-26T00:43:33;99180.06;;;11.27;74.20
54900;BME280;40801;41.924;25.562;2024-02-26T00:45:59;99185.00;;;11.25;74.38
54900;BME280;40801;41.924;25.562;2024-02-26T00:48:24;99182.44;;;11.20;74.42
54900;BME280;40801;41.924;25.562;2024-02-26T00:50:51;99190.06;;;11.17;74.41
54900;BME280;40801;41.924;25.562;2024-02-26T00:53:16;99183.06;;;11.16;74.14
54900;BME280;40801;41.924;25.562;2024-02-26T00:55:42;99182.09;;;11.12;74.55
54900;BME280;40801;41.924;25.562;2024-02-26T00:58:07;99184.81;;;11.12;74.38
54900;BME280;40801;41.924;25.562;2024-02-26T01:00:32;99185.28;;;11.06;74.35
54900;BME280;40801;41.924;25.562;2024-02-26T01:02:58;99177.13;;;10.97;74.43
54900;BME280;40801;41.924;25.562;2024-02-26T01:05:25;99172.50;;;10.89;74.84
54900;BME280;40801;41.924;25.562;2024-02-26T01:07:50;99171.06;;;10.92;74.98
54900;BME280;40801;41.924;25.562;2024-02-26T01:10:15;99174.25;;;10.94;74.94
54900;BME280;40801;41.924;25.562;2024-02-26T01:12:41;99163.50;;;11.02;74.54
54900;BME280;40801;41.924;25.562;2024-02-26T01:15:06;99160.81;;;11.02;74.72
54900;BME280;40801;41.924;25.562;2024-02-26T01:17:32;99157.63;;;11.00;74.53
54900;BME280;40801;41.924;25.562;2024-02-26T01:19:58;99159.22;;;11.01;74.79
54900;BME280;40801;41.924;25.562;2024-02-26T01:22:23;99156.66;;;10.96;74.70
54900;BME280;40801;41.924;25.562;2024-02-26T01:24:50;99155.69;;;10.92;74.58
54900;BME280;40801;41.924;25.562;2024-02-26T01:27:15;99147.09;;;10.90;74.67
54900;BME280;40801;41.924;25.562;2024-02-26T01:29:41;99148.53;;;10.88;74.93
54900;BME280;40801;41.924;25.562;2024-02-26T01:32:07;99153.94;;;10.88;74.98
54900;BME280;40801;41.924;25.562;2024-02-26T01:34:32;99141.53;;;10.86;74.73
54900;BME280;40801;41.924;25.562;2024-02-26T01:36:58;99149.94;;;10.85;74.60
54900;BME280;40801;41.924;25.562;2024-02-26T01:39:23;99153.28;;;10.82;74.75
54900;BME280;40801;41.924;25.562;2024-02-26T01:41:49;99153.91;;;10.79;75.06
54900;BME280;40801;41.924;25.562;2024-02-26T01:44:14;99146.38;;;10.67;75.31
54900;BME280;40801;41.924;25.562;2024-02-26T01:46:40;99150.88;;;10.72;74.97
54900;BME280;40801;41.924;25.562;2024-02-26T01:49:06;99155.31;;;10.76;74.99
54900;BME280;40801;41.924;25.562;2024-02-26T01:51:34;99151.69;;;10.81;74.85
54900;BME280;40801;41.924;25.562;2024-02-26T01:54:02;99159.13;;;10.75;75.07
54900;BME280;40801;41.924;25.562;2024-02-26T01:56:29;99151.47;;;10.69;75.07
54900;BME280;40801;41.924;25.562;2024-02-26T01:58:57;99147.31;;;10.63;74.86
54900;BME280;40801;41.924;25.562;2024-02-26T02:01:25;99148.59;;;10.65;75.05
54900;BME280;40801;41.924;25.562;2024-02-26T02:03:52;99142.88;;;10.67;75.10
54900;BME280;40801;41.924;25.562;2024-02-26T02:06:18;99138.97;;;10.73;74.99
54900;BME280;40801;41.924;25.562;2024-02-26T02:08:44;99149.13;;;10.76;75.22
54900;BME280;40801;41.924;25.562;2024-02-26T02:11:10;99140.56;;;10.74;74.93
54900;BME280;40801;41.924;25.562;2024-02-26T02:13:37;99146.13;;;10.77;74.83
54900;BME280;40801;41.924;25.562;2024-02-26T02:16:03;99145.50;;;10.80;74.73
54900;BME280;40801;41.924;25.562;2024-02-26T02:18:28;99139.78;;;10.82;74.87
54900;BME280;40801;41.924;25.562;2024-02-26T02:20:54;99144.56;;;10.85;74.98
54900;BME280;40801;41.924;25.562;2024-02-26T02:23:21;99139.31;;;10.89;74.65
54900;BME280;40801;41.924;25.562;2024-02-26T02:25:46;99139.31;;;10.89;74.45
54900;BME280;40801;41.924;25.562;2024-02-26T02:28:12;99142.34;;;10.87;74.61
54900;BME280;40801;41.924;25.562;2024-02-26T02:30:37;99142.34;;;10.87;74.67
54900;BME280;40801;41.924;25.562;2024-02-26T02:33:04;99131.69;;;10.82;74.64
54900;BME280;40801;41.924;25.562;2024-02-26T02:35:29;99140.41;;;10.79;75.16
54900;BME280;40801;41.924;25.562;2024-02-26T02:37:56;99141.03;;;10.76;74.98
54900;BME280;40801;41.924;25.562;2024-02-26T02:40:22;99142.16;;;10.75;74.98
54900;BME280;40801;41.924;25.562;2024-02-26T02:42:47;99142.81;;;10.80;74.27
54900;BME280;40801;41.924;25.562;2024-02-26T02:45:13;99148.50;;;10.79;74.60
54900;BME280;40801;41.924;25.562;2024-02-26T02:47:38;99141.03;;;10.76;74.66
54900;BME280;40801;41.924;25.562;2024-02-26T02:50:04;99144.38;;;10.73;74.48
54900;BME280;40801;41.924;25.562;2024-02-26T02:52:30;99149.75;;;10.73;74.39
54900;BME280;40801;41.924;25.562;2024-02-26T02:54:55;99136.66;;;10.58;74.98
54900;BME280;40801;41.924;25.562;2024-02-26T02:57:21;99136.81;;;10.52;75.11
54900;BME280;40801;41.924;25.562;2024-02-26T02:59:46;99132.97;;;10.45;75.73
54900;BME280;40801;41.924;25.562;2024-02-26T03:02:12;99128.72;;;10.52;75.14
54900;BME280;40801;41.924;25.562;2024-02-26T03:04:37;99127.78;;;10.57;75.00
54900;BME280;40801;41.924;25.562;2024-02-26T03:07:02;99130.81;;;10.64;75.25
54900;BME280;40801;41.924;25.562;2024-02-26T03:09:28;99130.88;;;10.73;74.53
54900;BME280;40801;41.924;25.562;2024-02-26T03:11:54;99131.84;;;10.77;74.19
54900;BME280;40801;41.924;25.562;2024-02-26T03:14:19;99130.41;;;10.79;74.54
54900;BME280;40801;41.924;25.562;2024-02-26T03:16:45;99125.59;;;10.68;75.04
54900;BME280;40801;41.924;25.562;2024-02-26T03:19:14;99129.28;;;10.72;74.41
54900;BME280;40801;41.924;25.562;2024-02-26T03:21:39;99143.28;;;10.82;74.00
54900;BME280;40801;41.924;25.562;2024-02-26T03:24:05;99134.72;;;10.80;74.54
54900;BME280;40801;41.924;25.562;2024-02-26T03:26:31;99133.25;;;10.74;75.22
54900;BME280;40801;41.924;25.562;2024-02-26T03:28:56;99128.03;;;10.78;75.31
54900;BME280;40801;41.924;25.562;2024-02-26T03:31:21;99140.44;;;10.88;74.64
54900;BME280;40801;41.924;25.562;2024-02-26T03:33:47;99145.19;;;10.91;74.77
54900;BME280;40801;41.924;25.562;2024-02-26T03:36:13;99146.16;;;10.86;74.54
54900;BME280;40801;41.924;25.562;2024-02-26T03:38:38;99144.69;;;10.71;74.57
54900;BME280;40801;41.924;25.562;2024-02-26T03:41:04;99143.81;;;10.62;74.73
54900;BME280;40801;41.924;25.562;2024-02-26T03:43:29;99145.22;;;10.51;74.92
54900;BME280;40801;41.924;25.562;2024-02-26T03:45:55;99147.41;;;10.49;74.98
54900;BME280;40801;41.924;25.562;2024-02-26T03:48:20;99140.75;;;10.46;75.31
54900;BME280;40801;41.924;25.562;2024-02-26T03:50:45;99146.75;;;10.43;75.55
54900;BME280;40801;41.924;25.562;2024-02-26T03:53:11;99143.69;;;10.36;76.12
54900;BME280;40801;41.924;25.562;2024-02-26T03:55:38;99147.56;;;10.44;75.47
54900;BME280;40801;41.924;25.562;2024-02-26T03:58:03;99142.78;;;10.41;75.84
54900;BME280;40801;41.924;25.562;2024-02-26T04:00:28;99149.63;;;10.47;75.60
54900;BME280;40801;41.924;25.562;2024-02-26T04:02:55;99141.72;;;10.50;75.18
54900;BME280;40801;41.924;25.562;2024-02-26T04:05:21;99138.84;;;10.47;75.58
54900;BME280;40801;41.924;25.562;2024-02-26T04:07:46;99141.53;;;10.47;75.61
54900;BME280;40801;41.924;25.562;2024-02-26T04:10:12;99141.88;;;10.54;75.25
54900;BME280;40801;41.924;25.562;2024-02-26T04:12:39;99142.53;;;10.60;75.00
54900;BME280;40801;41.924;25.562;2024-02-26T04:15:05;99139.22;;;10.63;75.20
54900;BME280;40801;41.924;25.562;2024-02-26T04:17:31;99144.13;;;10.61;75.16
54900;BME280;40801;41.924;25.562;2024-02-26T04:19:56;99148.28;;;10.67;74.60
54900;BME280;40801;41.924;25.562;2024-02-26T04:22:21;99148.41;;;10.62;75.07
54900;BME280;40801;41.924;25.562;2024-02-26T04:24:47;99156.66;;;10.57;75.52
54900;BME280;40801;41.924;25.562;2024-02-26T04:27:12;99149.66;;;10.55;75.58
54900;BME280;40801;41.924;25.562;2024-02-26T04:29:37;99151.41;;;10.51;75.80
54900;BME280;40801;41.924;25.562;2024-02-26T04:32:03;99155.69;;;10.52;75.60
54900;BME280;40801;41.924;25.562;2024-02-26T04:34:29;99155.19;;;10.50;75.88
54900;BME280;40801;41.924;25.562;2024-02-26T04:36:54;99153.47;;;10.54;75.79
54900;BME280;40801;41.924;25.562;2024-02-26T04:39:20;99145.69;;;10.53;75.81
54900;BME280;40801;41.924;25.562;2024-02-26T04:41:45;99150.94;;;10.58;75.03
54900;BME280;40801;41.924;25.562;2024-02-26T04:44:11;99150.47;;;10.56;75.27
54900;BME280;40801;41.924;25.562;2024-02-26T04:46:36;99154.41;;;10.50;75.86
54900;BME280;40801;41.924;25.562;2024-02-26T04:49:02;99141.88;;;10.54;75.74
54900;BME280;40801;41.924;25.562;2024-02-26T04:51:27;99138.25;;;10.59;75.60
54900;BME280;40801;41.924;25.562;2024-02-26T04:53:53;99143.50;;;10.64;75.66
54900;BME280;40801;41.924;25.562;2024-02-26T04:56:20;99125.28;;;10.69;75.37
54900;BME280;40801;41.924;25.562;2024-02-26T04:58:46;99143.28;;;10.82;74.16
54900;BME280;40801;41.924;25.562;2024-02-26T05:01:11;99145.34;;;10.85;73.81
54900;BME280;40801;41.924;25.562;2024-02-26T05:03:37;99136.78;;;10.83;74.16
54900;BME280;40801;41.924;25.562;2024-02-26T05:06:02;99133.44;;;10.78;74.69
54900;BME280;40801;41.924;25.562;2024-02-26T05:08:28;99141.34;;;10.74;74.81
54900;BME280;40801;41.924;25.562;2024-02-26T05:10:56;99151.38;;;10.82;74.72
54900;BME280;40801;41.924;25.562;2024-02-26T05:13:21;99149.81;;;10.90;73.84
54900;BME280;40801;41.924;25.562;2024-02-26T05:15:47;99158.03;;;10.85;73.99
54900;BME280;40801;41.924;25.562;2024-02-26T05:18:15;99155.34;;;10.85;73.65
54900;BME280;40801;41.924;25.562;2024-02-26T05:20:40;99152.31;;;10.78;74.07
54900;BME280;40801;41.924;25.562;2024-02-26T05:23:06;99161.19;;;10.78;74.25
54900;BME280;40801;41.924;25.562;2024-02-26T05:25:31;99164.22;;;10.77;74.41
54900;BME280;40801;41.924;25.562;2024-02-26T05:27:56;99165.16;;;10.81;74.47
54900;BME280;40801;41.924;25.562;2024-02-26T05:30:22;99168.84;;;10.85;74.33
54900;BME280;40801;41.924;25.562;2024-02-26T05:32:47;99162.97;;;10.83;74.72
54900;BME280;40801;41.924;25.562;2024-02-26T05:35:13;99168.19;;;10.79;75.09
54900;BME280;40801;41.924;25.562;2024-02-26T05:37:38;99170.88;;;10.79;75.06
54900;BME280;40801;41.924;25.562;2024-02-26T05:40:05;99173.25;;;10.81;74.82
54900;BME280;40801;41.924;25.562;2024-02-26T05:42:30;99181.22;;;10.86;74.28
54900;BME280;40801;41.924;25.562;2024-02-26T05:44:56;99177.31;;;11.01;73.58
54900;BME280;40801;41.924;25.562;2024-02-26T05:47:22;99169.03;;;10.97;73.89
54900;BME280;40801;41.924;25.562;2024-02-26T05:49:47;99169.97;;;10.93;74.20
54900;BME280;40801;41.924;25.562;2024-02-26T05:52:14;99171.91;;;11.01;74.09
54900;BME280;40801;41.924;25.562;2024-02-26T05:54:39;99173.03;;;11.00;74.51
54900;BME280;40801;41.924;25.562;2024-02-26T05:57:04;99172.91;;;11.13;73.65
54900;BME280;40801;41.924;25.562;2024-02-26T05:59:30;99174.34;;;11.20;73.70
54900;BME280;40801;41.924;25.562;2024-02-26T06:01:55;99176.72;;;11.12;74.13
54900;BME280;40801;41.924;25.562;2024-02-26T06:04:20;99171.00;;;11.14;74.14
54900;BME280;40801;41.924;25.562;2024-02-26T06:06:46;99181.66;;;11.19;74.05
54900;BME280;40801;41.924;25.562;2024-02-26T06:09:11;99185.00;;;11.25;73.65
54900;BME280;40801;41.924;25.562;2024-02-26T06:11:37;99179.94;;;11.32;73.63
54900;BME280;40801;41.924;25.562;2024-02-26T06:14:03;99184.66;;;11.26;73.94
54900;BME280;40801;41.924;25.562;2024-02-26T06:16:28;99180.59;;;11.37;73.71
54900;BME280;40801;41.924;25.562;2024-02-26T06:18:53;99181.22;;;11.43;73.60
54900;BME280;40801;41.924;25.562;2024-02-26T06:21:19;99181.06;;;11.48;73.66
54900;BME280;40801;41.924;25.562;2024-02-26T06:23:44;99188.09;;;11.58;73.28
54900;BME280;40801;41.924;25.562;2024-02-26T06:26:10;99191.75;;;11.62;73.10
54900;BME280;40801;41.924;25.562;2024-02-26T06:28:35;99199.69;;;11.75;72.62
54900;BME280;40801;41.924;25.562;2024-02-26T06:31:01;99194.50;;;11.88;72.97
54900;BME280;40801;41.924;25.562;2024-02-26T06:33:26;99193.06;;;11.99;72.57
54900;BME280;40801;41.924;25.562;2024-02-26T06:35:52;99186.09;;;12.15;72.35
54900;BME280;40801;41.924;25.562;2024-02-26T06:38:17;99193.38;;;12.06;72.85
54900;BME280;40801;41.924;25.562;2024-02-26T06:40:44;99192.13;;;12.21;72.07
54900;BME280;40801;41.924;25.562;2024-02-26T06:43:09;99193.81;;;12.43;71.39
54900;BME280;40801;41.924;25.562;2024-02-26T06:45:35;99192.53;;;12.49;71.41
54900;BME280;40801;41.924;25.562;2024-02-26T06:48:00;99194.56;;;12.60;71.03
54900;BME280;40801;41.924;25.562;2024-02-26T06:50:26;99192.31;;;12.71;70.81
54900;BME280;40801;41.924;25.562;2024-02-26T06:52:52;99199.63;;;12.79;70.16
54900;BME280;40801;41.924;25.562;2024-02-26T06:55:17;99194.28;;;13.00;69.42
54900;BME280;40801;41.924;25.562;2024-02-26T06:57:42;99198.41;;;13.06;69.52
54900;BME280;40801;41.924;25.562;2024-02-26T07:00:08;99196.13;;;13.17;69.35
54900;BME280;40801;41.924;25.562;2024-02-26T07:02:37;99197.56;;;13.14;68.89
54900;BME280;40801;41.924;25.562;2024-02-26T07:05:02;99202.31;;;13.26;68.53
54900;BME280;40801;41.924;25.562;2024-02-26T07:07:28;99201.50;;;13.25;68.25
54900;BME280;40801;41.924;25.562;2024-02-26T07:09:54;99215.97;;;13.38;68.04
54900;BME280;40801;41.924;25.562;2024-02-26T07:12:20;99205.53;;;13.49;67.55
54900;BME280;40801;41.924;25.562;2024-02-26T07:14:47;99214.56;;;13.61;67.51
54900;BME280;40801;41.924;25.562;2024-02-26T07:17:12;99213.38;;;13.71;67.17
54900;BME280;40801;41.924;25.562;2024-02-26T07:19:38;99203.00;;;13.73;66.94
54900;BME280;40801;41.924;25.562;2024-02-26T07:22:03;99205.03;;;13.76;66.88
54900;BME280;40801;41.924;25.562;2024-02-26T07:24:29;99200.63;;;13.72;67.23
54900;BME280;40801;41.924;25.562;2024-02-26T07:26:54;99199.09;;;13.83;67.29
54900;BME280;40801;41.924;25.562;2024-02-26T07:29:20;99200.00;;;13.87;67.07
54900;BME280;40801;41.924;25.562;2024-02-26T07:31:47;99199.53;;;13.85;66.81
54900;BME280;40801;41.924;25.562;2024-02-26T07:34:12;99206.63;;;13.98;66.91
54900;BME280;40801;41.924;25.562;2024-02-26T07:36:38;99200.53;;;14.01;66.71
54900;BME280;40801;41.924;25.562;2024-02-26T07:39:03;99198.81;;;14.17;66.39
54900;BME280;40801;41.924;25.562;2024-02-26T07:41:29;99216.19;;;14.37;65.64
54900;BME280;40801;41.924;25.562;2024-02-26T07:43:54;99207.13;;;14.33;65.75
54900;BME280;40801;41.924;25.562;2024-02-26T07:46:20;99206.44;;;14.36;66.38
54900;BME280;40801;41.924;25.562;2024-02-26T07:48:45;99200.66;;;14.46;66.09
54900;BME280;40801;41.924;25.562;2024-02-26T07:51:14;99201.75;;;14.45;66.03
54900;BME280;40801;41.924;25.562;2024-02-26T07:53:40;99202.47;;;14.54;65.85
54900;BME280;40801;41.924;25.562;2024-02-26T07:56:05;99198.31;;;14.69;65.33
54900;BME280;40801;41.924;25.562;2024-02-26T07:58:32;99199.22;;;14.61;65.03
54900;BME280;40801;41.924;25.562;2024-02-26T08:00:57;99200.81;;;14.62;65.53
54900;BME280;40801;41.924;25.562;2024-02-26T08:03:23;99200.09;;;14.53;65.40
54900;BME280;40801;41.924;25.562;2024-02-26T08:05:48;99187.56;;;14.48;65.38
54900;BME280;40801;41.924;25.562;2024-02-26T08:08:13;99194.03;;;14.68;64.21
54900;BME280;40801;41.924;25.562;2024-02-26T08:10:39;99192.09;;;14.56;64.77
54900;BME280;40801;41.924;25.562;2024-02-26T08:13:04;99195.59;;;14.69;64.01
54900;BME280;40801;41.924;25.562;2024-02-26T08:15:33;99191.88;;;14.74;63.84
54900;BME280;40801;41.924;25.562;2024-02-26T08:18:04;99187.81;;;14.68;63.59
54900;BME280;40801;41.924;25.562;2024-02-26T08:20:30;99185.25;;;14.83;63.70
54900;BME280;40801;41.924;25.562;2024-02-26T08:22:56;99179.03;;;14.83;63.37
54900;BME280;40801;41.924;25.562;2024-02-26T08:25:22;99169.75;;;14.84;63.51
54900;BME280;40801;41.924;25.562;2024-02-26T08:27:48;99178.44;;;14.90;63.16
54900;BME280;40801;41.924;25.562;2024-02-26T08:30:14;99195.22;;;15.16;62.56
54900;BME280;40801;41.924;25.562;2024-02-26T08:32:45;99204.41;;;15.36;61.47
54900;BME280;40801;41.924;25.562;2024-02-26T08:35:11;99208.13;;;15.43;61.62
54900;BME280;40801;41.924;25.562;2024-02-26T08:37:36;99210.50;;;15.45;61.23
54900;BME280;40801;41.924;25.562;2024-02-26T08:40:01;99205.66;;;15.63;61.16
54900;BME280;40801;41.924;25.562;2024-02-26T08:42:29;99212.78;;;15.67;61.25
54900;BME280;40801;41.924;25.562;2024-02-26T08:44:54;99213.44;;;15.76;60.81
54900;BME280;40801;41.924;25.562;2024-02-26T08:47:20;99201.88;;;15.79;60.74
54900;BME280;40801;41.924;25.562;2024-02-26T08:49:45;99198.22;;;15.88;60.46
54900;BME280;40801;41.924;25.562;2024-02-26T08:52:11;99200.13;;;15.87;60.23
54900;BME280;40801;41.924;25.562;2024-02-26T08:54:36;99217.75;;;15.65;59.71
54900;BME280;40801;41.924;25.562;2024-02-26T08:57:02;99204.16;;;15.65;59.75
54900;BME280;40801;41.924;25.562;2024-02-26T08:59:28;99199.53;;;15.66;59.95
54900;BME280;40801;41.924;25.562;2024-02-26T09:01:53;99197.59;;;15.66;59.91
54900;BME280;40801;41.924;25.562;2024-02-26T09:04:19;99184.75;;;15.79;59.74
54900;BME280;40801;41.924;25.562;2024-02-26T09:06:44;99190.97;;;15.79;59.75
54900;BME280;40801;41.924;25.562;2024-02-26T09:09:10;99198.09;;;15.96;59.29
54900;BME280;40801;41.924;25.562;2024-02-26T09:11:36;99193.28;;;15.65;59.46
54900;BME280;40801;41.924;25.562;2024-02-26T09:14:02;99182.38;;;15.77;59.16
54900;BME280;40801;41.924;25.562;2024-02-26T09:16:29;99183.19;;;15.78;58.47
54900;BME280;40801;41.924;25.562;2024-02-26T09:18:54;99185.19;;;15.81;58.45
54900;BME280;40801;41.924;25.562;2024-02-26T09:21:19;99178.28;;;15.84;58.46
54900;BME280;40801;41.924;25.562;2024-02-26T09:23:49;99188.81;;;15.85;58.37
54900;BME280;40801;41.924;25.562;2024-02-26T09:26:15;99185.19;;;15.81;58.67
54900;BME280;40801;41.924;25.562;2024-02-26T09:28:40;99181.00;;;15.84;58.62
54900;BME280;40801;41.924;25.562;2024-02-26T09:31:06;99191.19;;;15.87;58.42
54900;BME280;40801;41.924;25.562;2024-02-26T09:33:32;99186.19;;;15.89;58.32
54900;BME280;40801;41.924;25.562;2024-02-26T09:35:57;99186.97;;;15.89;58.47
54900;BME280;40801;41.924;25.562;2024-02-26T09:38:23;99184.22;;;15.73;58.60
54900;BME280;40801;41.924;25.562;2024-02-26T09:40:49;99185.06;;;15.90;58.23
54900;BME280;40801;41.924;25.562;2024-02-26T09:43:17;99176.78;;;15.86;58.57
54900;BME280;40801;41.924;25.562;2024-02-26T09:45:45;99174.88;;;15.87;58.07
54900;BME280;40801;41.924;25.562;2024-02-26T09:48:12;99176.09;;;16.01;57.79
54900;BME280;40801;41.924;25.562;2024-02-26T09:50:40;99173.72;;;16.00;57.95
54900;BME280;40801;41.924;25.562;2024-02-26T09:53:08;99170.75;;;16.05;57.61
54900;BME280;40801;41.924;25.562;2024-02-26T09:55:35;99172.75;;;16.08;57.50
54900;BME280;40801;41.924;25.562;2024-02-26T09:58:01;99180.22;;;16.11;56.99
54900;BME280;40801;41.924;25.562;2024-02-26T10:00:30;99178.72;;;16.41;56.93
54900;BME280;40801;41.924;25.562;2024-02-26T10:03:03;99177.13;;;16.68;55.56
54900;BME280;40801;41.924;25.562;2024-02-26T10:05:29;99173.56;;;16.80;55.66
54900;BME280;40801;41.924;25.562;2024-02-26T10:07:56;99164.31;;;17.16;54.82
54900;BME280;40801;41.924;25.562;2024-02-26T10:10:23;99167.13;;;17.20;54.37
54900;BME280;40801;41.924;25.562;2024-02-26T10:12:49;99164.03;;;17.06;54.30
54900;BME280;40801;41.924;25.562;2024-02-26T10:15:15;99160.19;;;17.07;54.04
54900;BME280;40801;41.924;25.562;2024-02-26T10:17:41;99168.06;;;17.43;53.44
54900;BME280;40801;41.924;25.562;2024-02-26T10:20:13;99159.88;;;17.62;52.61
54900;BME280;40801;41.924;25.562;2024-02-26T10:22:48;99160.03;;;17.85;52.54
54900;BME280;40801;41.924;25.562;2024-02-26T10:25:14;99155.88;;;17.72;52.08
54900;BME280;40801;41.924;25.562;2024-02-26T10:27:42;99148.91;;;17.75;51.04
54900;BME280;40801;41.924;25.562;2024-02-26T10:30:20;99145.88;;;17.45;50.62
54900;BME280;40801;41.924;25.562;2024-02-26T10:32:46;99137.66;;;17.60;52.11
54900;BME280;40801;41.924;25.562;2024-02-26T10:35:16;99140.38;;;17.60;51.69
54900;BME280;40801;41.924;25.562;2024-02-26T10:37:43;99131.25;;;17.69;51.99
54900;BME280;40801;41.924;25.562;2024-02-26T10:40:13;99131.75;;;17.74;51.61
54900;BME280;40801;41.924;25.562;2024-02-26T10:42:40;99132.75;;;17.85;51.68
54900;BME280;40801;41.924;25.562;2024-02-26T10:45:07;99128.00;;;17.82;51.47
54900;BME280;40801;41.924;25.562;2024-02-26T10:47:34;99126.44;;;17.81;51.09
54900;BME280;40801;41.924;25.562;2024-02-26T10:50:04;99123.28;;;17.79;50.46
54900;BME280;40801;41.924;25.562;2024-02-26T10:52:34;99124.25;;;17.90;51.09
54900;BME280;40801;41.924;25.562;2024-02-26T10:55:01;99123.28;;;17.99;50.89
54900;BME280;40801;41.924;25.562;2024-02-26T10:57:51;99124.28;;;17.71;49.21
54900;BME280;40801;41.924;25.562;2024-02-26T11:00:18;99116.50;;;17.92;49.79
54900;BME280;40801;41.924;25.562;2024-02-26T11:02:45;99112.44;;;17.83;49.36
54900;BME280;40801;41.924;25.562;2024-02-26T11:05:12;99106.31;;;17.89;49.41
54900;BME280;40801;41.924;25.562;2024-02-26T11:07:37;99109.34;;;18.04;48.61
54900;BME280;40801;41.924;25.562;2024-02-26T11:10:04;99111.28;;;18.03;48.25
54900;BME280;40801;41.924;25.562;2024-02-26T11:12:32;99108.97;;;17.86;48.04
54900;BME280;40801;41.924;25.562;2024-02-26T11:14:59;99106.91;;;17.99;47.89
54900;BME280;40801;41.924;25.562;2024-02-26T11:17:28;99101.09;;;18.00;48.24
54900;BME280;40801;41.924;25.562;2024-02-26T11:19:57;99095.63;;;18.00;48.11
54900;BME280;40801;41.924;25.562;2024-02-26T11:22:24;99091.25;;;17.95;47.88
54900;BME280;40801;41.924;25.562;2024-02-26T11:24:52;99079.75;;;18.06;47.33
54900;BME280;40801;41.924;25.562;2024-02-26T11:27:20;99080.53;;;18.06;47.47
54900;BME280;40801;41.924;25.562;2024-02-26T11:29:49;99074.09;;;18.18;47.32
54900;BME280;40801;41.924;25.562;2024-02-26T11:32:15;99068.91;;;18.32;46.20
54900;BME280;40801;41.924;25.562;2024-02-26T11:34:42;99074.25;;;18.48;45.96
54900;BME280;40801;41.924;25.562;2024-02-26T11:37:14;99065.38;;;18.77;44.45
54900;BME280;40801;41.924;25.562;2024-02-26T11:39:41;99057.59;;;19.06;45.70
54900;BME280;40801;41.924;25.562;2024-02-26T11:42:13;99059.34;;;19.47;43.47
54900;BME280;40801;41.924;25.562;2024-02-26T11:44:39;99044.56;;;19.86;44.28
54900;BME280;40801;41.924;25.562;2024-02-26T11:47:14;99047.16;;;20.08;42.84
54900;BME280;40801;41.924;25.562;2024-02-26T11:49:43;99045.69;;;20.59;42.63
54900;BME280;40801;41.924;25.562;2024-02-26T11:52:09;99035.94;;;20.65;41.48
54900;BME280;40801;41.924;25.562;2024-02-26T11:54:46;99034.75;;;20.62;39.82
54900;BME280;40801;41.924;25.562;2024-02-26T11:57:29;99047.34;;;20.70;39.65
54900;BME280;40801;41.924;25.562;2024-02-26T11:59:57;99040.00;;;20.82;41.06
54900;BME280;40801;41.924;25.562;2024-02-26T12:02:54;99043.41;;;20.68;39.32
54900;BME280;40801;41.924;25.562;2024-02-26T12:05:26;99038.78;;;20.79;40.16
54900;BME280;40801;41.924;25.562;2024-02-26T12:07:55;99036.50;;;20.85;40.11
54900;BME280;40801;41.924;25.562;2024-02-26T12:10:31;99023.84;;;20.69;38.08
54900;BME280;40801;41.924;25.562;2024-02-26T12:13:16;99025.72;;;20.58;40.42
54900;BME280;40801;41.924;25.562;2024-02-26T12:15:44;99031.22;;;20.62;40.34
54900;BME280;40801;41.924;25.562;2024-02-26T12:18:12;99027.59;;;20.47;40.81
54900;BME280;40801;41.924;25.562;2024-02-26T12:20:40;99017.91;;;20.57;40.70
54900;BME280;40801;41.924;25.562;2024-02-26T12:23:06;99024.53;;;20.56;40.93
54900;BME280;40801;41.924;25.562;2024-02-26T12:25:32;99021.56;;;20.31;40.81
54900;BME280;40801;41.924;25.562;2024-02-26T12:28:00;99032.19;;;20.39;41.15
54900;BME280;40801;41.924;25.562;2024-02-26T12:30:26;99040.38;;;20.36;41.44
54900;BME280;40801;41.924;25.562;2024-02-26T12:32:54;99041.97;;;20.37;41.07
54900;BME280;40801;41.924;25.562;2024-02-26T12:35:24;99038.09;;;20.41;41.36
54900;BME280;40801;41.924;25.562;2024-02-26T12:37:49;99032.66;;;20.45;40.68
54900;BME280;40801;41.924;25.562;2024-02-26T12:40:17;99034.91;;;20.36;40.61
54900;BME280;40801;41.924;25.562;2024-02-26T12:42:42;99043.75;;;20.22;40.47
54900;BME280;40801;41.924;25.562;2024-02-26T12:45:10;99042.31;;;20.32;40.56
54900;BME280;40801;41.924;25.562;2024-02-26T12:47:40;99039.44;;;20.21;41.35